sensor_id;sensor_type;location;lat;lon;timestamp;pressure;altitude;pressure_sealevel;temperature;humidity
2549;BME280;1284;53.520;10.248;2023-02-22T00:00:37;100957.16;;;10.90;100.00
2549;BME280;1284;53.520;10.248;2023-02-22T00:05:41;100945.16;;;10.87;100.00
2549;BME280;1284;53.520;10.248;2023-02-22T00:08:15;100955.59;;;10.89;100.00
2549;BME280;1284;53.520;10.248;2023-02-22T00:10:41;100942.91;;;10.89;100.00
2549;BME280;1284;53.520;10.248;2023-02-22T00:13:09;100941.41;;;10.92;100.00
2549;BME280;1284;53.520;10.248;2023-02-22T00:15:35;100947.84;;;11.03;100.00
2549;BME280;1284;53.520;10.248;2023-02-22T00:18:02;100944.78;;;11.05;100.00
2549;BME280;1284;53.520;10.248;2023-02-22T00:20:28;100942.34;;;11.00;100.00
2549;BME280;1284;53.520;10.248;2023-02-22T00:22:54;100942.47;;;11.03;100.00
2549;BME280;1284;53.520;10.248;2023-02-22T00:25:22;100936.53;;;10.98;100.00
2549;BME280;1284;53.520;10.248;2023-02-22T00:27:49;100937.63;;;10.77;100.00
2549;BME280;1284;53.520;10.248;2023-02-22T00:30:21;100935.94;;;10.88;100.00
2549;BME280;1284;53.520;10.248;2023-02-22T00:32:48;100935.84;;;11.01;100.00
2549;BME280;1284;53.520;10.248;2023-02-22T00:35:16;100934.97;;;10.97;100.00
2549;BME280;1284;53.520;10.248;2023-02-22T00:37:42;100932.13;;;10.89;100.00
2549;BME280;1284;53.520;10.248;2023-02-22T00:40:13;100932.56;;;10.92;100.00
2549;BME280;1284;53.520;10.248;2023-02-22T00:42:39;100925.09;;;10.85;100.00
2549;BME280;1284;53.520;10.248;2023-02-22T00:45:05;100937.09;;;10.87;100.00
2549;BME280;1284;53.520;10.248;2023-02-22T00:47:34;100932.91;;;10.90;100.00
2549;BME280;1284;53.520;10.248;2023-02-22T00:49:59;100939.06;;;10.90;100.00
2549;BME280;1284;53.520;10.248;2023-02-22T00:52:26;100936.09;;;10.96;100.00
2549;BME280;1284;53.520;10.248;2023-02-22T00:54:53;100940.72;;;10.95;100.00
2549;BME280;1284;53.520;10.248;2023-02-22T00:57:19;100938.47;;;10.81;100.00
2549;BME280;1284;53.520;10.248;2023-02-22T00:59:44;100929.63;;;10.81;100.00
2549;BME280;1284;53.520;10.248;2023-02-22T01:02:10;100942.19;;;10.93;100.00
2549;BME280;1284;53.520;10.248;2023-02-22T01:04:35;100936.28;;;11.03;100.00
2549;BME280;1284;53.520;10.248;2023-02-22T01:07:01;100930.09;;;11.02;100.00
2549;BME280;1284;53.520;10.248;2023-02-22T01:09:26;100928.28;;;10.90;100.00
2549;BME280;1284;53.520;10.248;2023-02-22T01:11:53;100925.19;;;10.57;100.00
2549;BME280;1284;53.520;10.248;2023-02-22T01:14:26;100928.75;;;10.61;100.00
2549;BME280;1284;53.520;10.248;2023-02-22T01:16:53;100925.69;;;10.78;100.00
2549;BME280;1284;53.520;10.248;2023-02-22T01:19:20;100927.00;;;10.84;100.00
2549;BME280;1284;53.520;10.248;2023-02-22T01:21:46;100919.16;;;10.95;100.00
2549;BME280;1284;53.520;10.248;2023-02-22T01:24:14;100931.94;;;10.82;100.00
2549;BME280;1284;53.520;10.248;2023-02-22T01:26:48;100932.31;;;10.81;100.00
2549;BME280;1284;53.520;10.248;2023-02-22T01:29:15;100929.63;;;10.81;100.00
2549;BME280;1284;53.520;10.248;2023-02-22T01:31:41;100921.44;;;10.77;100.00
2549;BME280;1284;53.520;10.248;2023-02-22T01:34:10;100928.75;;;10.77;100.00
2549;BME280;1284;53.520;10.248;2023-02-22T01:36:37;100920.75;;;10.80;100.00
2549;BME280;1284;53.520;10.248;2023-02-22T01:39:04;100925.25;;;10.92;100.00
2549;BME280;1284;53.520;10.248;2023-02-22T01:41:30;100927.50;;;10.90;100.00
2549;BME280;1284;53.520;10.248;2023-02-22T01:43:57;100915.97;;;10.89;100.00
2549;BME280;1284;53.520;10.248;2023-02-22T01:46:26;100925.88;;;10.85;100.00
2549;BME280;1284;53.520;10.248;2023-02-22T01:51:32;100918.22;;;10.87;100.00
2549;BME280;1284;53.520;10.248;2023-02-22T01:54:08;100915.97;;;10.89;100.00
2549;BME280;1284;53.520;10.248;2023-02-22T01:56:44;100907.53;;;10.91;100.00
2549;BME280;1284;53.520;10.248;2023-02-22T01:59:11;100907.59;;;10.95;100.00
2549;BME280;1284;53.520;10.248;2023-02-22T02:01:39;100907.09;;;10.89;100.00
2549;BME280;1284;53.520;10.248;2023-02-22T02:04:11;100901.63;;;10.85;100.00
2549;BME280;1284;53.520;10.248;2023-02-22T02:06:40;100907.88;;;10.89;100.00
2549;BME280;1284;53.520;10.248;2023-02-22T02:09:27;100898.72;;;10.94;100.00
2549;BME280;1284;53.520;10.248;2023-02-22T02:11:58;100899.09;;;10.93;100.00
2549;BME280;1284;53.520;10.248;2023-02-22T02:14:29;100897.09;;;10.89;100.00
2549;BME280;1284;53.520;10.248;2023-02-22T02:16:58;100898.06;;;10.81;100.00
2549;BME280;1284;53.520;10.248;2023-02-22T02:27:53;100889.09;;;10.93;100.00
2549;BME280;1284;53.520;10.248;2023-02-22T02:38:33;100890.28;;;10.96;100.00
2549;BME280;1284;53.520;10.248;2023-02-22T02:41:12;100886.06;;;10.95;100.00
2549;BME280;1284;53.520;10.248;2023-02-22T02:43:48;100882.22;;;10.96;100.00
2549;BME280;1284;53.520;10.248;2023-02-22T02:46:35;100883.00;;;10.96;100.00
2549;BME280;1284;53.520;10.248;2023-02-22T02:49:07;100874.59;;;10.82;100.00
2549;BME280;1284;53.520;10.248;2023-02-22T02:51:39;100878.25;;;10.89;100.00
2549;BME280;1284;53.520;10.248;2023-02-22T02:54:06;100876.66;;;10.88;100.00
2549;BME280;1284;53.520;10.248;2023-02-22T02:56:33;100868.59;;;10.88;100.00
2549;BME280;1284;53.520;10.248;2023-02-22T02:58:59;100865.63;;;10.94;100.00
2549;BME280;1284;53.520;10.248;2023-02-22T03:18:06;100853.75;;;10.79;100.00
2549;BME280;1284;53.520;10.248;2023-02-22T03:20:46;100850.34;;;10.82;100.00
2549;BME280;1284;53.520;10.248;2023-02-22T03:23:18;100848.78;;;10.81;100.00
2549;BME280;1284;53.520;10.248;2023-02-22T03:25:52;100843.91;;;10.86;100.00
2549;BME280;1284;53.520;10.248;2023-02-22T03:28:23;100838.81;;;10.81;100.00
2549;BME280;1284;53.520;10.248;2023-02-22T03:30:55;100844.19;;;10.81;100.00
2549;BME280;1284;53.520;10.248;2023-02-22T03:33:29;100840.78;;;10.84;100.00
2549;BME280;1284;53.520;10.248;2023-02-22T03:36:04;100845.91;;;10.89;100.00
2549;BME280;1284;53.520;10.248;2023-02-22T03:38:32;100846.19;;;10.84;100.00
2549;BME280;1284;53.520;10.248;2023-02-22T03:41:00;100838.03;;;10.81;100.00
2549;BME280;1284;53.520;10.248;2023-02-22T03:43:42;100835.50;;;10.72;100.00
2549;BME280;1284;53.520;10.248;2023-02-22T03:46:13;100837.00;;;10.70;100.00
2549;BME280;1284;53.520;10.248;2023-02-22T03:48:48;100837.94;;;10.77;100.00
2549;BME280;1284;53.520;10.248;2023-02-22T03:51:16;100842.13;;;10.75;100.00
2549;BME280;1284;53.520;10.248;2023-02-22T03:56:16;100836.56;;;10.68;100.00
2549;BME280;1284;53.520;10.248;2023-02-22T03:58:45;100832.38;;;10.70;100.00
2549;BME280;1284;53.520;10.248;2023-02-22T04:01:16;100840.88;;;10.72;100.00
2549;BME280;1284;53.520;10.248;2023-02-22T04:03:41;100840.03;;;10.68;100.00
2549;BME280;1284;53.520;10.248;2023-02-22T04:06:08;100841.09;;;10.64;100.00
2549;BME280;1284;53.520;10.248;2023-02-22T04:08:34;100840.13;;;10.72;100.00
2549;BME280;1284;53.520;10.248;2023-02-22T04:11:01;100840.56;;;10.74;100.00
2549;BME280;1284;53.520;10.248;2023-02-22T04:13:28;100839.06;;;10.76;100.00
2549;BME280;1284;53.520;10.248;2023-02-22T04:15:54;100847.16;;;10.76;100.00
2549;BME280;1284;53.520;10.248;2023-02-22T04:18:19;100844.22;;;10.66;100.00
2549;BME280;1284;53.520;10.248;2023-02-22T04:20:46;100838.19;;;10.72;100.00
2549;BME280;1284;53.520;10.248;2023-02-22T04:23:20;100844.13;;;10.78;100.00
2549;BME280;1284;53.520;10.248;2023-02-22T04:25:47;100851.84;;;10.79;100.00
2549;BME280;1284;53.520;10.248;2023-02-22T04:28:15;100851.56;;;10.84;100.00
2549;BME280;1284;53.520;10.248;2023-02-22T04:30:49;100851.91;;;10.83;100.00
2549;BME280;1284;53.520;10.248;2023-02-22T04:33:17;100850.41;;;10.66;100.00
2549;BME280;1284;53.520;10.248;2023-02-22T04:35:42;100852.97;;;10.78;100.00
2549;BME280;1284;53.520;10.248;2023-02-22T04:38:08;100836.88;;;10.82;100.00
2549;BME280;1284;53.520;10.248;2023-02-22T04:40:38;100847.41;;;10.87;100.00
2549;BME280;1284;53.520;10.248;2023-02-22T04:43:05;100849.66;;;10.85;100.00
2549;BME280;1284;53.520;10.248;2023-02-22T04:45:30;100833.00;;;10.79;100.00
2549;BME280;1284;53.520;10.248;2023-02-22T04:47:56;100846.19;;;10.84;100.00
2549;BME280;1284;53.520;10.248;2023-02-22T04:50:22;100845.75;;;10.82;100.00
2549;BME280;1284;53.520;10.248;2023-02-22T04:52:48;100834.25;;;10.66;100.00
2549;BME280;1284;53.520;10.248;2023-02-22T04:57:42;100837.09;;;10.73;100.00
2549;BME280;1284;53.520;10.248;2023-02-22T05:00:08;100838.38;;;10.79;100.00
2549;BME280;1284;53.520;10.248;2023-02-22T05:02:39;100829.66;;;10.86;100.00
2549;BME280;1284;53.520;10.248;2023-02-22T05:05:04;100838.88;;;10.85;100.00
2549;BME280;1284;53.520;10.248;2023-02-22T05:07:30;100829.31;;;10.87;100.00
2549;BME280;1284;53.520;10.248;2023-02-22T05:09:55;100833.06;;;10.83;100.00
2549;BME280;1284;53.520;10.248;2023-02-22T05:12:21;100832.78;;;10.88;100.00
2549;BME280;1284;53.520;10.248;2023-02-22T05:14:46;100832.78;;;10.88;100.00
2549;BME280;1284;53.520;10.248;2023-02-22T05:17:12;100838.25;;;10.92;100.00
2549;BME280;1284;53.520;10.248;2023-02-22T05:19:37;100840.53;;;10.89;100.00
2549;BME280;1284;53.520;10.248;2023-02-22T05:22:03;100827.75;;;10.86;100.00
2549;BME280;1284;53.520;10.248;2023-02-22T05:24:30;100837.72;;;10.86;100.00
2549;BME280;1284;53.520;10.248;2023-02-22T05:26:56;100828.03;;;10.81;100.00
2549;BME280;1284;53.520;10.248;2023-02-22T05:29:22;100830.97;;;10.76;100.00
2549;BME280;1284;53.520;10.248;2023-02-22T05:31:47;100829.16;;;10.80;100.00
2549;BME280;1284;53.520;10.248;2023-02-22T05:34:13;100831.91;;;10.84;100.00
2549;BME280;1284;53.520;10.248;2023-02-22T05:36:38;100843.97;;;10.90;100.00
2549;BME280;1284;53.520;10.248;2023-02-22T05:39:04;100831.59;;;10.85;100.00
2549;BME280;1284;53.520;10.248;2023-02-22T05:41:30;100834.19;;;10.82;100.00
2549;BME280;1284;53.520;10.248;2023-02-22T05:43:55;100832.69;;;10.84;100.00
2549;BME280;1284;53.520;10.248;2023-02-22T05:46:21;100830.88;;;10.88;100.00
2549;BME280;1284;53.520;10.248;2023-02-22T05:48:46;100826.63;;;10.87;100.00
2549;BME280;1284;53.520;10.248;2023-02-22T05:51:12;100832.00;;;10.87;100.00
2549;BME280;1284;53.520;10.248;2023-02-22T05:53:38;100833.25;;;10.74;100.00
2549;BME280;1284;53.520;10.248;2023-02-22T05:56:04;100834.47;;;10.77;100.00
2549;BME280;1284;53.520;10.248;2023-02-22T05:58:29;100831.44;;;10.63;100.00
2549;BME280;1284;53.520;10.248;2023-02-22T06:00:55;100830.56;;;10.74;100.00
2549;BME280;1284;53.520;10.248;2023-02-22T06:03:21;100823.31;;;10.78;100.00
2549;BME280;1284;53.520;10.248;2023-02-22T06:05:46;100825.69;;;10.80;100.00
2549;BME280;1284;53.520;10.248;2023-02-22T06:08:12;100822.22;;;10.79;100.00
2549;BME280;1284;53.520;10.248;2023-02-22T06:10:37;100822.03;;;10.72;100.00
2549;BME280;1284;53.520;10.248;2023-02-22T06:13:04;100831.78;;;10.77;100.00
2549;BME280;1284;53.520;10.248;2023-02-22T06:15:30;100820.31;;;10.80;100.00
2549;BME280;1284;53.520;10.248;2023-02-22T06:17:56;100829.31;;;10.87;100.00
2549;BME280;1284;53.520;10.248;2023-02-22T06:20:25;100833.97;;;10.71;100.00
2549;BME280;1284;53.520;10.248;2023-02-22T06:22:52;100830.97;;;10.76;100.00
2549;BME280;1284;53.520;10.248;2023-02-22T06:25:22;100822.41;;;10.71;100.00
2549;BME280;1284;53.520;10.248;2023-02-22T06:27:49;100830.00;;;10.84;100.00
2549;BME280;1284;53.520;10.248;2023-02-22T06:30:16;100830.00;;;10.84;100.00
2549;BME280;1284;53.520;10.248;2023-02-22T06:32:42;100832.28;;;10.82;100.00
2549;BME280;1284;53.520;10.248;2023-02-22T06:35:08;100833.41;;;10.81;100.00
2549;BME280;1284;53.520;10.248;2023-02-22T06:37:34;100834.47;;;10.77;100.00
2549;BME280;1284;53.520;10.248;2023-02-22T06:39:59;100833.88;;;10.68;100.00
2549;BME280;1284;53.520;10.248;2023-02-22T06:42:25;100835.25;;;10.77;100.00
2549;BME280;1284;53.520;10.248;2023-02-22T06:44:50;100833.66;;;10.76;100.00
2549;BME280;1284;53.520;10.248;2023-02-22T06:47:16;100836.47;;;10.80;100.00
2549;BME280;1284;53.520;10.248;2023-02-22T06:49:41;100836.53;;;10.83;100.00
2549;BME280;1284;53.520;10.248;2023-02-22T06:52:07;100836.38;;;10.76;100.00
2549;BME280;1284;53.520;10.248;2023-02-22T06:54:37;100830.91;;;10.73;100.00
2549;BME280;1284;53.520;10.248;2023-02-22T06:57:03;100829.06;;;10.77;100.00
2549;BME280;1284;53.520;10.248;2023-02-22T06:59:28;100838.19;;;10.72;100.00
2549;BME280;1284;53.520;10.248;2023-02-22T07:01:54;100838.47;;;10.67;100.00
2549;BME280;1284;53.520;10.248;2023-02-22T07:04:20;100841.88;;;10.64;100.00
2549;BME280;1284;53.520;10.248;2023-02-22T07:06:47;100836.75;;;10.59;100.00
2549;BME280;1284;53.520;10.248;2023-02-22T07:11:58;100834.63;;;10.68;100.00
2549;BME280;1284;53.520;10.248;2023-02-22T07:14:24;100837.09;;;10.73;100.00
2549;BME280;1284;53.520;10.248;2023-02-22T07:16:49;100841.06;;;10.79;100.00
2549;BME280;1284;53.520;10.248;2023-02-22T07:19:15;100851.13;;;10.82;100.00
2549;BME280;1284;53.520;10.248;2023-02-22T07:21:40;100846.97;;;10.85;100.00
2549;BME280;1284;53.520;10.248;2023-02-22T07:24:06;100843.66;;;10.92;100.00
2549;BME280;1284;53.520;10.248;2023-02-22T07:26:38;100849.66;;;10.85;100.00
2549;BME280;1284;53.520;10.248;2023-02-22T07:29:04;100842.25;;;10.82;100.00
2549;BME280;1284;53.520;10.248;2023-02-22T07:31:34;100851.31;;;10.89;100.00
2549;BME280;1284;53.520;10.248;2023-02-22T07:34:00;100849.72;;;10.88;100.00
2549;BME280;1284;53.520;10.248;2023-02-22T07:36:26;100846.19;;;10.84;100.00
2549;BME280;1284;53.520;10.248;2023-02-22T07:38:51;100834.91;;;10.63;100.00
2549;BME280;1284;53.520;10.248;2023-02-22T07:41:17;100836.16;;;10.66;100.00
2549;BME280;1284;53.520;10.248;2023-02-22T07:43:42;100832.50;;;10.58;100.00
2549;BME280;1284;53.520;10.248;2023-02-22T07:46:07;100827.19;;;10.62;100.00
2549;BME280;1284;53.520;10.248;2023-02-22T07:48:33;100829.25;;;10.68;100.00
2549;BME280;1284;53.520;10.248;2023-02-22T07:50:59;100825.34;;;10.81;100.00
2549;BME280;1284;53.520;10.248;2023-02-22T07:53:29;100818.97;;;10.89;100.00
2549;BME280;1284;53.520;10.248;2023-02-22T07:56:00;100822.25;;;10.99;100.00
2549;BME280;1284;53.520;10.248;2023-02-22T07:58:28;100830.63;;;10.94;100.00
2549;BME280;1284;53.520;10.248;2023-02-22T08:00:54;100828.31;;;10.96;100.00
2549;BME280;1284;53.520;10.248;2023-02-22T08:03:22;100832.22;;;10.98;100.00
2549;BME280;1284;53.520;10.248;2023-02-22T08:05:53;100819.13;;;10.97;100.00
2549;BME280;1284;53.520;10.248;2023-02-22T08:08:19;100824.38;;;10.89;100.00
2549;BME280;1284;53.520;10.248;2023-02-22T08:10:46;100827.13;;;10.93;100.00
2549;BME280;1284;53.520;10.248;2023-02-22T08:13:12;100826.69;;;10.91;100.00
2549;BME280;1284;53.520;10.248;2023-02-22T08:15:39;100818.81;;;11.02;100.00
2549;BME280;1284;53.520;10.248;2023-02-22T08:18:07;100812.31;;;11.03;100.00
2549;BME280;1284;53.520;10.248;2023-02-22T08:20:33;100806.63;;;11.08;100.00
2549;BME280;1284;53.520;10.248;2023-02-22T08:22:59;100803.50;;;11.06;100.00
2549;BME280;1284;53.520;10.248;2023-02-22T08:25:27;100812.94;;;11.15;100.00
2549;BME280;1284;53.520;10.248;2023-02-22T08:27:58;100808.84;;;11.21;100.00
2549;BME280;1284;53.520;10.248;2023-02-22T08:30:26;100803.88;;;11.23;100.00
2549;BME280;1284;53.520;10.248;2023-02-22T08:32:52;100801.84;;;11.17;100.00
2549;BME280;1284;53.520;10.248;2023-02-22T08:35:19;100809.94;;;11.17;100.00
2549;BME280;1284;53.520;10.248;2023-02-22T08:37:47;100798.19;;;10.90;100.00
2549;BME280;1284;53.520;10.248;2023-02-22T08:40:13;100802.59;;;10.98;100.00
2549;BME280;1284;53.520;10.248;2023-02-22T08:42:41;100800.88;;;11.09;100.00
2549;BME280;1284;53.520;10.248;2023-02-22T08:45:07;100797.19;;;11.17;100.00
2549;BME280;1284;53.520;10.248;2023-02-22T08:47:33;100802.41;;;11.07;100.00
2549;BME280;1284;53.520;10.248;2023-02-22T08:49:58;100798.97;;;11.10;100.00
2549;BME280;1284;53.520;10.248;2023-02-22T08:52:24;100789.06;;;11.14;100.00
2549;BME280;1284;53.520;10.248;2023-02-22T08:54:49;100791.69;;;11.29;100.00
2549;BME280;1284;53.520;10.248;2023-02-22T08:57:15;100796.44;;;11.17;100.00
2549;BME280;1284;53.520;10.248;2023-02-22T08:59:40;100789.19;;;11.21;100.00
2549;BME280;1284;53.520;10.248;2023-02-22T09:02:18;100798.84;;;11.22;100.00
2549;BME280;1284;53.520;10.248;2023-02-22T09:04:45;100795.34;;;11.40;100.00
2549;BME280;1284;53.520;10.248;2023-02-22T09:07:11;100794.31;;;11.26;100.00
2549;BME280;1284;53.520;10.248;2023-02-22T09:09:36;100792.53;;;11.33;100.00
2549;BME280;1284;53.520;10.248;2023-02-22T09:12:02;100791.63;;;11.07;100.00
2549;BME280;1284;53.520;10.248;2023-02-22T09:14:28;100796.72;;;11.12;100.00
2549;BME280;1284;53.520;10.248;2023-02-22T09:16:53;100802.47;;;11.29;100.00
2549;BME280;1284;53.520;10.248;2023-02-22T09:19:19;100796.78;;;11.15;100.00
2549;BME280;1284;53.520;10.248;2023-02-22T09:21:44;100805.09;;;11.26;100.00
2549;BME280;1284;53.520;10.248;2023-02-22T09:24:10;100800.50;;;11.26;100.00
2549;BME280;1284;53.520;10.248;2023-02-22T09:26:37;100785.94;;;10.93;100.00
2549;BME280;1284;53.520;10.248;2023-02-22T09:29:07;100790.91;;;11.10;100.00
2549;BME280;1284;53.520;10.248;2023-02-22T09:31:37;100797.28;;;11.21;100.00
2549;BME280;1284;53.520;10.248;2023-02-22T09:34:05;100792.03;;;11.28;100.00
2549;BME280;1284;53.520;10.248;2023-02-22T09:36:44;100799.28;;;11.05;100.00
2549;BME280;1284;53.520;10.248;2023-02-22T09:39:16;100790.09;;;10.90;100.00
2549;BME280;1284;53.520;10.248;2023-02-22T09:42:01;100793.72;;;10.98;100.00
2549;BME280;1284;53.520;10.248;2023-02-22T09:47:19;100788.69;;;11.15;100.00
2549;BME280;1284;53.520;10.248;2023-02-22T09:50:13;100795.50;;;11.09;100.00
2549;BME280;1284;53.520;10.248;2023-02-22T09:53:01;100795.44;;;11.06;100.00
2549;BME280;1284;53.520;10.248;2023-02-22T09:55:35;100789.28;;;11.05;100.00
2549;BME280;1284;53.520;10.248;2023-02-22T09:58:06;100785.63;;;10.78;100.00
2549;BME280;1284;53.520;10.248;2023-02-22T10:00:36;100786.38;;;10.60;100.00
2549;BME280;1284;53.520;10.248;2023-02-22T10:06:11;100787.91;;;10.96;100.00
2549;BME280;1284;53.520;10.248;2023-02-22T10:08:38;100782.69;;;11.03;100.00
2549;BME280;1284;53.520;10.248;2023-02-22T10:11:08;100773.75;;;10.99;100.00
2549;BME280;1284;53.520;10.248;2023-02-22T10:19:49;100772.75;;;11.26;100.00
2549;BME280;1284;53.520;10.248;2023-02-22T10:21:59;100766.31;;;11.53;100.00
2549;BME280;1284;53.520;10.248;2023-02-22T10:24:58;100770.44;;;11.66;100.00
2549;BME280;1284;53.520;10.248;2023-02-22T10:27:31;100763.56;;;11.68;100.00
2549;BME280;1284;53.520;10.248;2023-02-22T10:30:03;100773.13;;;11.66;100.00
2549;BME280;1284;53.520;10.248;2023-02-22T10:32:44;100765.16;;;11.73;100.00
2549;BME280;1284;53.520;10.248;2023-02-22T10:35:26;100758.63;;;11.74;100.00
2549;BME280;1284;53.520;10.248;2023-02-22T10:37:58;100767.63;;;11.82;100.00
2549;BME280;1284;53.520;10.248;2023-02-22T10:40:26;100756.72;;;11.74;100.00
2549;BME280;1284;53.520;10.248;2023-02-22T10:43:05;100765.63;;;12.01;100.00
2549;BME280;1284;53.520;10.248;2023-02-22T10:45:33;100764.50;;;12.02;100.00
2549;BME280;1284;53.520;10.248;2023-02-22T10:48:06;100749.16;;;11.84;100.00
2549;BME280;1284;53.520;10.248;2023-02-22T10:50:36;100757.50;;;11.98;100.00
2549;BME280;1284;53.520;10.248;2023-02-22T10:53:02;100755.31;;;12.07;100.00
2549;BME280;1284;53.520;10.248;2023-02-22T10:55:27;100751.69;;;12.22;100.00
2549;BME280;1284;53.520;10.248;2023-02-22T10:58:05;100757.31;;;12.36;100.00
2549;BME280;1284;53.520;10.248;2023-02-22T11:00:38;100746.00;;;12.56;99.88
2549;BME280;1284;53.520;10.248;2023-02-22T11:03:21;100735.75;;;12.39;99.70
2549;BME280;1284;53.520;10.248;2023-02-22T11:05:48;100742.47;;;12.52;100.00
2549;BME280;1284;53.520;10.248;2023-02-22T11:10:48;100729.06;;;12.89;99.18
2549;BME280;1284;53.520;10.248;2023-02-22T11:15:50;100720.63;;;13.24;97.85
2549;BME280;1284;53.520;10.248;2023-02-22T11:18:24;100721.34;;;13.21;96.60
2549;BME280;1284;53.520;10.248;2023-02-22T11:20:59;100716.28;;;13.52;96.45
2549;BME280;1284;53.520;10.248;2023-02-22T11:23:25;100714.47;;;13.71;96.00
2549;BME280;1284;53.520;10.248;2023-02-22T11:26:04;100721.53;;;13.82;94.74
2549;BME280;1284;53.520;10.248;2023-02-22T11:28:30;100708.63;;;13.65;93.23
2549;BME280;1284;53.520;10.248;2023-02-22T11:31:26;100708.25;;;13.67;93.11
2549;BME280;1284;53.520;10.248;2023-02-22T11:36:41;100694.13;;;13.84;92.53
2549;BME280;1284;53.520;10.248;2023-02-22T11:41:46;100683.19;;;13.73;90.15
2549;BME280;1284;53.520;10.248;2023-02-22T11:44:31;100670.13;;;13.35;91.86
2549;BME280;1284;53.520;10.248;2023-02-22T11:46:59;100673.59;;;13.35;92.31
2549;BME280;1284;53.520;10.248;2023-02-22T11:49:35;100672.59;;;13.54;90.29
2549;BME280;1284;53.520;10.248;2023-02-22T11:52:26;100667.41;;;13.35;87.20
2549;BME280;1284;53.520;10.248;2023-02-22T12:01:10;100643.66;;;13.58;86.39
2549;BME280;1284;53.520;10.248;2023-02-22T12:06:44;100649.38;;;14.04;84.66
2549;BME280;1284;53.520;10.248;2023-02-22T12:09:21;100656.28;;;13.94;82.30
2549;BME280;1284;53.520;10.248;2023-02-22T12:14:32;100642.41;;;14.03;83.17
2549;BME280;1284;53.520;10.248;2023-02-22T12:19:50;100651.78;;;14.23;82.37
2549;BME280;1284;53.520;10.248;2023-02-22T12:22:33;100647.56;;;14.22;82.33
2549;BME280;1284;53.520;10.248;2023-02-22T12:25:28;100644.16;;;14.35;81.19
2549;BME280;1284;53.520;10.248;2023-02-22T12:28:17;100636.78;;;14.32;81.06
2549;BME280;1284;53.520;10.248;2023-02-22T12:30:52;100646.38;;;14.23;79.54
2549;BME280;1284;53.520;10.248;2023-02-22T12:33:26;100637.22;;;13.80;81.09
2549;BME280;1284;53.520;10.248;2023-02-22T12:35:54;100640.28;;;13.72;81.06
2549;BME280;1284;53.520;10.248;2023-02-22T12:38:42;100630.72;;;13.92;81.91
2549;BME280;1284;53.520;10.248;2023-02-22T12:41:58;100632.00;;;14.08;81.68
2549;BME280;1284;53.520;10.248;2023-02-22T12:44:15;100630.00;;;14.02;85.04
2549;BME280;1284;53.520;10.248;2023-02-22T12:46:49;100625.81;;;14.11;86.14
2549;BME280;1284;53.520;10.248;2023-02-22T12:49:44;100614.97;;;14.08;88.14
2549;BME280;1284;53.520;10.248;2023-02-22T12:52:51;100615.38;;;14.13;84.74
2549;BME280;1284;53.520;10.248;2023-02-22T12:55:51;100619.75;;;14.28;84.32
2549;BME280;1284;53.520;10.248;2023-02-22T13:01:18;100618.28;;;14.48;81.74
2549;BME280;1284;53.520;10.248;2023-02-22T13:03:45;100605.47;;;14.38;79.85
2549;BME280;1284;53.520;10.248;2023-02-22T13:06:39;100605.09;;;14.43;80.55
2549;BME280;1284;53.520;10.248;2023-02-22T13:12:30;100597.31;;;14.28;82.10
2549;BME280;1284;53.520;10.248;2023-02-22T13:15:13;100605.44;;;14.35;81.69
2549;BME280;1284;53.520;10.248;2023-02-22T13:17:55;100605.06;;;14.33;82.40
2549;BME280;1284;53.520;10.248;2023-02-22T13:20:51;100594.47;;;14.10;84.03
2549;BME280;1284;53.520;10.248;2023-02-22T13:28:39;100603.34;;;14.07;85.57
2549;BME280;1284;53.520;10.248;2023-02-22T13:33:52;100599.38;;;13.87;86.58
2549;BME280;1284;53.520;10.248;2023-02-22T13:36:36;100598.69;;;14.04;85.54
2549;BME280;1284;53.520;10.248;2023-02-22T13:39:16;100595.69;;;14.20;85.14
2549;BME280;1284;53.520;10.248;2023-02-22T13:44:44;100589.47;;;14.19;84.83
2549;BME280;1284;53.520;10.248;2023-02-22T13:54:56;100586.97;;;13.83;87.02
2549;BME280;1284;53.520;10.248;2023-02-22T13:57:36;100581.72;;;14.11;86.27
2549;BME280;1284;53.520;10.248;2023-02-22T14:10:56;100578.53;;;13.91;88.28
2549;BME280;1284;53.520;10.248;2023-02-22T14:13:27;100577.44;;;14.06;87.91
2549;BME280;1284;53.520;10.248;2023-02-22T14:21:04;100576.22;;;13.93;88.75
2549;BME280;1284;53.520;10.248;2023-02-22T14:23:46;100567.00;;;14.08;88.13
2549;BME280;1284;53.520;10.248;2023-02-22T14:26:32;100571.22;;;14.02;88.55
2549;BME280;1284;53.520;10.248;2023-02-22T14:37:21;100569.38;;;14.20;87.79
2549;BME280;1284;53.520;10.248;2023-02-22T14:47:29;100561.88;;;13.89;88.74
2549;BME280;1284;53.520;10.248;2023-02-22T14:50:05;100560.66;;;13.76;89.15
2549;BME280;1284;53.520;10.248;2023-02-22T14:52:35;100551.78;;;13.86;88.55
2549;BME280;1284;53.520;10.248;2023-02-22T14:55:22;100556.31;;;13.65;89.30
2549;BME280;1284;53.520;10.248;2023-02-22T14:57:57;100561.34;;;13.66;89.20
2549;BME280;1284;53.520;10.248;2023-02-22T15:00:38;100552.84;;;13.68;89.56
2549;BME280;1284;53.520;10.248;2023-02-22T15:03:04;100553.56;;;13.61;89.59
2549;BME280;1284;53.520;10.248;2023-02-22T15:05:36;100558.25;;;13.61;90.19
2549;BME280;1284;53.520;10.248;2023-02-22T15:08:07;100552.38;;;13.51;90.33
2549;BME280;1284;53.520;10.248;2023-02-22T15:10:44;100550.53;;;13.66;89.17
2549;BME280;1284;53.520;10.248;2023-02-22T15:15:42;100545.94;;;13.74;89.26
2549;BME280;1284;53.520;10.248;2023-02-22T15:20:50;100551.75;;;13.72;89.26
2549;BME280;1284;53.520;10.248;2023-02-22T15:23:22;100546.28;;;13.69;89.48
2549;BME280;1284;53.520;10.248;2023-02-22T15:25:49;100544.41;;;13.76;89.01
2549;BME280;1284;53.520;10.248;2023-02-22T15:28:16;100551.16;;;13.45;89.91
2549;BME280;1284;53.520;10.248;2023-02-22T15:30:42;100544.31;;;13.62;90.07
2549;BME280;1284;53.520;10.248;2023-02-22T15:33:19;100537.34;;;13.65;89.65